Time;durP1;ratioP1;P1;durP2;ratioP2;P2;SDS_P1;SDS_P2;PMS_P1;PMS_P2;Temp;Humidity;BMP_temperature;BMP_pressure;BME280_temperature;BME280_humidity;BME280_pressure;Samples;Min_cycle;Max_cycle;Signal;HPM_P1;HPM_P2
2023/01/05 00:01:32;;;;;;;18.33;5.80;;;10.80;99.90;;;;;;5037366;28;20875;-66
2023/01/05 00:03:59;;;;;;;21.07;6.23;;;10.80;99.90;;;;;;5037104;28;20501;-66
2023/01/05 00:06:26;;;;;;;17.27;4.67;;;10.80;99.90;;;;;;5037320;28;20495;-66
2023/01/05 00:08:55;;;;;;;16.90;5.33;;;10.80;99.90;;;;;;5037820;28;20459;-67
2023/01/05 00:22:31;;;;;;;15.50;4.90;;;10.80;99.90;;;;;;5038204;28;20911;-66
2023/01/05 00:25:01;;;;;;;19.80;5.20;;;10.80;99.90;;;;;;5039030;28;20469;-66
2023/01/05 00:27:29;;;;;;;14.70;4.90;;;10.70;99.90;;;;;;5057641;28;20552;-66
2023/01/05 00:29:56;;;;;;;19.13;5.57;;;10.80;99.90;;;;;;5058314;28;20509;-66
2023/01/05 00:32:24;;;;;;;19.77;5.50;;;10.70;99.90;;;;;;5058545;28;20481;-66
2023/01/05 00:34:54;;;;;;;15.17;4.80;;;10.70;99.90;;;;;;5058379;28;20762;-66
2023/01/05 00:37:22;;;;;;;21.47;6.53;;;10.70;99.90;;;;;;5057825;28;20470;-66
2023/01/05 00:39:49;;;;;;;14.37;5.50;;;10.60;99.90;;;;;;5058139;28;20497;-66
2023/01/05 00:42:19;;;;;;;19.17;6.27;;;10.60;99.90;;;;;;5057929;28;20468;-66
2023/01/05 00:44:46;;;;;;;17.00;5.43;;;10.60;99.90;;;;;;5058251;28;20484;-66
2023/01/05 00:47:14;;;;;;;16.40;7.07;;;10.50;99.90;;;;;;5057565;28;20470;-66
2023/01/05 00:49:41;;;;;;;24.10;5.90;;;10.50;99.90;;;;;;5057742;28;20462;-67
2023/01/05 00:52:08;;;;;;;25.63;7.30;;;10.50;99.90;;;;;;5058071;28;20752;-65
2023/01/05 00:54:36;;;;;;;18.73;5.97;;;10.50;99.90;;;;;;5057673;28;20462;-66
2023/01/05 00:57:04;;;;;;;14.17;5.87;;;10.50;99.90;;;;;;5057938;28;20461;-66
2023/01/05 00:59:33;;;;;;;18.47;6.23;;;10.50;99.90;;;;;;5057370;28;20464;-66
2023/01/05 01:02:00;;;;;;;23.90;7.20;;;10.40;99.90;;;;;;5057481;28;20462;-66
2023/01/05 01:04:27;;;;;;;19.03;5.90;;;10.40;99.90;;;;;;5057750;28;20466;-66
2023/01/05 01:06:55;;;;;;;21.53;6.10;;;10.40;99.90;;;;;;5057114;28;20496;-66
2023/01/05 01:09:22;;;;;;;15.30;5.30;;;10.40;99.90;;;;;;5057519;28;20818;-66
2023/01/05 01:11:49;;;;;;;17.50;5.60;;;10.40;99.90;;;;;;5057696;28;20564;-67
2023/01/05 01:14:16;;;;;;;21.00;6.30;;;10.40;1.00;;;;;;5057663;28;20883;-65
2023/01/05 01:16:45;;;;;;;27.00;6.47;;;10.40;99.90;;;;;;5057939;28;20462;-65
2023/01/05 01:19:14;;;;;;;25.00;6.23;;;10.40;1.00;;;;;;5057278;28;21019;-65
2023/01/05 01:21:42;;;;;;;29.30;8.73;;;10.30;99.90;;;;;;5057359;28;20763;-64
2023/01/05 01:24:14;;;;;;;22.00;6.93;;;10.30;10.00;;;;;;5057486;28;20481;-63
2023/01/05 01:26:42;;;;;;;19.43;5.90;;;10.30;1.00;;;;;;5057259;28;20880;-61
2023/01/05 01:29:09;;;;;;;18.90;5.83;;;10.20;1.00;;;;;;5056897;28;20523;-63
2023/01/05 01:31:36;;;;;;;26.57;6.03;;;10.30;99.90;;;;;;5056923;28;20480;-65
2023/01/05 01:34:05;;;;;;;24.20;8.13;;;10.30;1.00;;;;;;5057294;28;20465;-65
2023/01/05 01:36:33;;;;;;;20.30;5.80;;;10.30;99.90;;;;;;5057196;28;20468;-63
2023/01/05 01:39:00;;;;;;;15.63;6.70;;;10.30;99.90;;;;;;5056359;28;20947;-63
2023/01/05 01:41:27;;;;;;;23.73;7.70;;;10.30;99.90;;;;;;5057282;28;20562;-63
2023/01/05 01:43:55;;;;;;;25.73;6.80;;;10.30;99.90;;;;;;5057168;28;20462;-64
2023/01/05 01:46:24;;;;;;;20.50;6.87;;;10.30;99.90;;;;;;5057424;28;20466;-64
2023/01/05 01:48:56;;;;;;;15.23;5.90;;;10.30;99.90;;;;;;5057254;28;20905;-64
2023/01/05 01:51:29;;;;;;;22.30;6.97;;;10.30;99.90;;;;;;5056464;28;20507;-63
2023/01/05 01:53:58;;;;;;;26.30;7.17;;;10.30;99.90;;;;;;5056927;28;21001;-63
2023/01/05 01:56:30;;;;;;;17.93;6.17;;;10.30;99.90;;;;;;5057045;28;20553;-64
2023/01/05 01:58:57;;;;;;;25.63;6.40;;;10.30;99.90;;;;;;5056447;28;20508;-63
2023/01/05 02:01:25;;;;;;;20.93;6.67;;;10.30;99.90;;;;;;5056832;28;20468;-64
2023/01/05 02:03:52;;;;;;;14.23;6.30;;;10.30;99.90;;;;;;5057029;28;20564;-64
2023/01/05 02:06:19;;;;;;;19.70;6.67;;;10.20;99.90;;;;;;5056335;28;20496;-64
2023/01/05 02:08:49;;;;;;;19.53;6.27;;;10.20;99.90;;;;;;5057154;28;20462;-64
2023/01/05 02:11:30;;;;;;;18.80;7.50;;;10.20;99.90;;;;;;5056986;28;20751;-64
2023/01/05 02:14:20;;;;;;;20.77;6.10;;;10.20;99.90;;;;;;5057108;28;20458;-64
2023/01/05 02:17:37;;;;;;;17.63;8.20;;;10.20;99.90;;;;;;5057056;28;20468;-64
2023/01/05 02:20:39;;;;;;;23.47;7.43;;;10.20;99.90;;;;;;5056703;28;20494;-64
2023/01/05 02:23:46;;;;;;;23.97;5.80;;;10.20;99.90;;;;;;5056992;28;20541;-64
2023/01/05 02:26:44;;;;;;;26.80;6.70;;;10.20;99.90;;;;;;5057133;28;20531;-64
2023/01/05 02:29:47;;;;;;;14.33;5.67;;;10.20;99.90;;;;;;5035788;28;20473;-65
2023/01/05 02:32:20;;;;;;;19.50;6.93;;;10.20;99.90;;;;;;5056966;28;20793;-65
2023/01/05 02:34:55;;;;;;;12.93;5.60;;;10.10;99.90;;;;;;5056848;28;20810;-65
2023/01/05 02:37:29;;;;;;;25.47;6.97;;;10.10;99.90;;;;;;5056229;28;20835;-65
2023/01/05 02:40:00;;;;;;;12.23;5.20;;;10.10;99.90;;;;;;5056683;28;20504;-65
2023/01/05 02:42:31;;;;;;;20.03;6.07;;;10.10;99.90;;;;;;5056057;28;20899;-65
2023/01/05 02:45:01;;;;;;;17.13;6.43;;;10.10;99.90;;;;;;5056368;28;20441;-64
2023/01/05 02:47:45;;;;;;;18.60;7.23;;;10.10;99.90;;;;;;5056992;28;20492;-65
2023/01/05 02:50:16;;;;;;;17.97;6.57;;;10.10;99.90;;;;;;5055448;28;20472;-65
2023/01/05 02:52:51;;;;;;;24.70;6.63;;;10.10;99.90;;;;;;5060531;28;20468;-65
2023/01/05 02:55:21;;;;;;;18.60;7.40;;;10.00;99.90;;;;;;5060161;28;20431;-65
2023/01/05 02:57:52;;;;;;;22.00;5.80;;;10.00;99.90;;;;;;5060540;28;20459;-66
2023/01/05 03:00:25;;;;;;;13.77;6.63;;;10.00;99.90;;;;;;5060369;28;20496;-66
2023/01/05 03:02:57;;;;;;;18.33;6.47;;;10.00;99.90;;;;;;5060610;28;20454;-65
2023/01/05 03:05:28;;;;;;;13.43;6.37;;;10.00;99.90;;;;;;5059587;28;20496;-66
2023/01/05 03:08:06;;;;;;;21.17;6.97;;;10.00;99.90;;;;;;5059960;28;20472;-65
2023/01/05 03:13:43;;;;;;;23.60;6.57;;;10.00;99.90;;;;;;5028479;28;20742;-66
2023/01/05 03:16:13;;;;;;;24.33;6.00;;;10.00;99.90;;;;;;5059456;28;20467;-65
2023/01/05 03:21:28;;;;;;;23.63;7.37;;;10.00;99.90;;;;;;5059129;28;20481;-66
2023/01/05 03:35:32;;;;;;;24.37;7.30;;;9.90;99.90;;;;;;5058974;28;20538;-65
2023/01/05 03:38:07;;;;;;;26.17;6.20;;;9.90;99.90;;;;;;5059623;28;20767;-65
2023/01/05 03:40:37;;;;;;;19.20;6.70;;;9.90;99.90;;;;;;5055185;28;20527;-66
2023/01/05 03:43:05;;;;;;;18.40;6.63;;;9.90;99.90;;;;;;5030295;28;20874;-65
2023/01/05 03:45:37;;;;;;;23.40;6.83;;;10.00;99.90;;;;;;5036301;28;20469;-65
2023/01/05 03:48:05;;;;;;;26.63;7.83;;;9.90;1.00;;;;;;5039137;28;20474;-62
2023/01/05 03:50:34;;;;;;;21.10;6.63;;;9.90;15.70;;;;;;5039280;28;20536;-63
2023/01/05 03:53:04;;;;;;;13.23;6.23;;;9.80;99.90;;;;;;5038640;28;20473;-64
2023/01/05 03:55:32;;;;;;;21.43;8.20;;;9.80;99.90;;;;;;5037758;28;20463;-65
2023/01/05 03:57:59;;;;;;;29.40;8.10;;;9.70;1.00;;;;;;5037503;28;20467;-63
2023/01/05 04:00:26;;;;;;;24.67;7.87;;;9.70;99.90;;;;;;5037584;28;20497;-63
2023/01/05 04:02:53;;;;;;;22.10;6.80;;;9.60;99.90;;;;;;5036735;28;20804;-64
2023/01/05 04:05:20;;;;;;;18.97;6.70;;;9.60;52.70;;;;;;5037264;28;20517;-63
2023/01/05 04:07:49;;;;;;;25.77;7.77;;;9.60;7.10;;;;;;5037053;28;20466;-61
2023/01/05 04:10:17;;;;;;;27.53;8.60;;;9.70;99.90;;;;;;5037251;28;20553;-63
2023/01/05 04:12:45;;;;;;;25.60;7.60;;;9.70;99.90;;;;;;5037481;28;20892;-61
2023/01/05 04:15:12;;;;;;;18.13;7.27;;;9.70;1.00;;;;;;5036986;28;20561;-64
2023/01/05 04:17:39;;;;;;;17.43;6.80;;;9.70;99.90;;;;;;5038112;28;20441;-63
2023/01/05 04:20:07;;;;;;;21.90;7.87;;;9.70;99.90;;;;;;5038498;28;20498;-65
2023/01/05 04:22:35;;;;;;;26.40;8.80;;;9.60;25.00;;;;;;5038579;28;20467;-66
2023/01/05 04:25:04;;;;;;;30.43;7.90;;;9.60;99.90;;;;;;5038342;28;20477;-65
2023/01/05 04:27:31;;;;;;;18.10;6.40;;;9.60;1.00;;;;;;5038645;28;20459;-65
2023/01/05 04:29:58;;;;;;;21.67;7.70;;;9.60;1.00;;;;;;5037576;28;20454;-64
2023/01/05 04:32:25;;;;;;;14.83;7.20;;;9.50;1.00;;;;;;5038535;28;20459;-65
2023/01/05 04:34:52;;;;;;;21.63;7.00;;;9.50;99.90;;;;;;5038505;28;20759;-66
2023/01/05 04:37:20;;;;;;;24.13;7.83;;;9.60;1.00;;;;;;5038226;28;20758;-65
2023/01/05 04:39:47;;;;;;;21.57;7.20;;;9.50;99.90;;;;;;5037674;28;20528;-65
2023/01/05 04:42:16;;;;;;;26.43;7.73;;;9.50;1.00;;;;;;5038304;28;20876;-65
2023/01/05 04:44:43;;;;;;;30.13;7.80;;;9.60;1.00;;;;;;5038385;28;20896;-64
2023/01/05 04:47:10;;;;;;;23.67;8.30;;;9.60;99.90;;;;;;5037901;28;20433;-63
2023/01/05 04:49:38;;;;;;;26.13;7.43;;;9.60;99.90;;;;;;5037966;28;20470;-64
2023/01/05 04:52:07;;;;;;;25.53;6.93;;;9.60;99.90;;;;;;5038460;28;20466;-67
2023/01/05 04:54:34;;;;;;;19.33;7.27;;;9.60;99.90;;;;;;5037980;28;20529;-65
2023/01/05 04:57:03;;;;;;;19.07;7.30;;;9.60;1.00;;;;;;5037386;28;20915;-65
2023/01/05 04:59:31;;;;;;;26.00;7.17;;;9.50;1.00;;;;;;5037756;28;20467;-65
2023/01/05 05:01:58;;;;;;;23.03;7.60;;;9.50;99.90;;;;;;5028904;28;20500;-63
2023/01/05 05:04:25;;;;;;;18.40;7.30;;;9.50;1.00;;;;;;5018062;28;20463;-64
2023/01/05 05:06:53;;;;;;;26.77;7.73;;;9.40;1.00;;;;;;5016769;28;20495;-64
2023/01/05 05:09:22;;;;;;;21.20;7.33;;;9.40;8.40;;;;;;5017817;28;20464;-66
2023/01/05 05:11:49;;;;;;;18.80;7.10;;;9.40;99.90;;;;;;5017113;28;20471;-65
2023/01/05 05:14:24;;;;;;;22.10;7.90;;;9.40;99.90;;;;;;5016813;28;20464;-67
2023/01/05 05:16:52;;;;;;;22.07;7.60;;;9.30;99.90;;;;;;5018035;28;20448;-66
2023/01/05 05:19:20;;;;;;;20.00;7.00;;;9.40;99.90;;;;;;5017478;28;20464;-65
2023/01/05 05:21:47;;;;;;;21.00;7.70;;;9.40;99.90;;;;;;5017803;28;20813;-65
2023/01/05 05:24:14;;;;;;;15.70;7.70;;;9.30;99.90;;;;;;5016285;28;20931;-64
2023/01/05 05:26:41;;;;;;;27.30;8.73;;;9.30;99.90;;;;;;5016153;28;20467;-65
2023/01/05 05:29:08;;;;;;;24.67;9.13;;;9.40;99.90;;;;;;5015130;28;20467;-64
2023/01/05 05:31:35;;;;;;;19.73;7.97;;;9.30;99.90;;;;;;5015105;28;20460;-65
2023/01/05 05:34:04;;;;;;;28.03;8.50;;;9.30;99.90;;;;;;5016042;28;20463;-64
2023/01/05 05:36:34;;;;;;;21.23;7.70;;;9.30;99.90;;;;;;5016174;28;20464;-64
2023/01/05 05:39:01;;;;;;;26.97;8.60;;;9.30;99.90;;;;;;5016496;28;20464;-65
2023/01/05 05:41:29;;;;;;;18.93;8.77;;;9.30;99.90;;;;;;5017160;28;20595;-65
2023/01/05 05:43:59;;;;;;;23.67;7.77;;;9.30;99.90;;;;;;5017233;28;20442;-65
2023/01/05 05:46:27;;;;;;;22.83;9.50;;;9.30;99.90;;;;;;5017643;28;20474;-65
2023/01/05 05:48:54;;;;;;;27.90;9.23;;;9.40;99.90;;;;;;5017351;28;20471;-64
2023/01/05 05:51:24;;;;;;;21.63;8.03;;;9.30;99.90;;;;;;5017548;28;20487;-64
2023/01/05 05:53:51;;;;;;;15.83;8.90;;;9.30;99.90;;;;;;5017443;28;20464;-64
2023/01/05 05:56:19;;;;;;;18.73;8.67;;;9.30;99.90;;;;;;5016955;28;20807;-65
2023/01/05 05:58:46;;;;;;;23.57;8.60;;;9.40;99.90;;;;;;5016971;28;20461;-65
2023/01/05 06:01:13;;;;;;;21.60;7.77;;;9.30;99.90;;;;;;5016621;28;20471;-64
2023/01/05 06:03:40;;;;;;;23.50;9.00;;;9.30;99.90;;;;;;5017037;28;20468;-64
2023/01/05 06:06:08;;;;;;;28.00;10.27;;;9.40;99.90;;;;;;5016443;28;20488;-64
2023/01/05 06:08:37;;;;;;;21.23;8.17;;;9.30;99.90;;;;;;5016425;28;20470;-65
2023/01/05 06:11:04;;;;;;;28.83;9.47;;;9.30;99.90;;;;;;5016892;28;20846;-64
2023/01/05 06:13:31;;;;;;;23.57;9.37;;;9.30;99.90;;;;;;5017122;28;20977;-65
2023/01/05 06:15:58;;;;;;;26.33;9.30;;;9.30;99.90;;;;;;5017175;28;20759;-65
2023/01/05 06:18:27;;;;;;;27.73;10.20;;;9.30;99.90;;;;;;5017241;28;20478;-63
2023/01/05 06:20:54;;;;;;;24.47;9.90;;;9.30;99.90;;;;;;5016296;28;20492;-64
2023/01/05 06:23:21;;;;;;;22.53;7.50;;;9.30;99.90;;;;;;5017080;28;20812;-64
2023/01/05 06:25:49;;;;;;;29.40;9.77;;;9.40;99.90;;;;;;5019101;28;20478;-64
2023/01/05 06:28:17;;;;;;;23.60;8.80;;;9.40;99.90;;;;;;5020181;28;20468;-64
2023/01/05 06:30:44;;;;;;;27.73;9.67;;;9.40;99.90;;;;;;5020252;28;20470;-64
2023/01/05 06:33:11;;;;;;;24.60;9.50;;;9.30;99.90;;;;;;5020285;28;20946;-66
2023/01/05 06:35:38;;;;;;;23.17;8.50;;;9.40;99.90;;;;;;5020684;28;20469;-65
2023/01/05 06:38:06;;;;;;;19.33;8.70;;;9.30;99.90;;;;;;5020649;28;20463;-65
2023/01/05 06:40:33;;;;;;;24.17;9.30;;;9.30;99.90;;;;;;5020851;28;20470;-64
2023/01/05 06:43:02;;;;;;;24.80;8.87;;;9.30;99.90;;;;;;5020239;28;20464;-66
2023/01/05 06:45:29;;;;;;;20.23;8.60;;;9.30;99.90;;;;;;5019663;28;20781;-66
2023/01/05 06:47:57;;;;;;;21.43;8.67;;;9.30;99.90;;;;;;5019673;28;20468;-66
2023/01/05 06:50:24;;;;;;;28.40;11.10;;;9.30;99.90;;;;;;5020763;28;20467;-66
2023/01/05 06:52:52;;;;;;;27.37;10.60;;;9.20;99.90;;;;;;5020321;28;20889;-65
2023/01/05 06:55:20;;;;;;;26.63;9.37;;;9.30;99.90;;;;;;5020380;28;20558;-66
2023/01/05 06:57:48;;;;;;;26.87;10.27;;;9.20;99.90;;;;;;5020702;28;20736;-65
2023/01/05 07:00:18;;;;;;;26.50;9.93;;;9.30;99.90;;;;;;5020634;28;20463;-65
2023/01/05 07:02:46;;;;;;;25.63;11.77;;;9.30;99.90;;;;;;5019788;28;20492;-66
2023/01/05 07:05:13;;;;;;;27.50;11.10;;;9.30;99.90;;;;;;5019658;28;20464;-66
2023/01/05 07:07:40;;;;;;;19.77;9.57;;;9.20;99.90;;;;;;5019926;28;20558;-66
2023/01/05 07:10:08;;;;;;;41.23;12.17;;;9.20;99.90;;;;;;5020328;28;20474;-65
2023/01/05 07:12:35;;;;;;;26.67;10.50;;;9.20;99.90;;;;;;5020247;28;20530;-65
2023/01/05 07:15:04;;;;;;;30.50;11.83;;;9.20;99.90;;;;;;5019906;28;20915;-64
2023/01/05 07:17:33;;;;;;;24.13;10.10;;;9.30;99.90;;;;;;5019914;28;20490;-65
2023/01/05 07:20:00;;;;;;;30.90;11.03;;;9.30;99.90;;;;;;5019912;28;20736;-65
2023/01/05 07:22:29;;;;;;;27.00;10.27;;;9.20;99.90;;;;;;5019963;28;20492;-65
2023/01/05 07:24:57;;;;;;;26.70;11.63;;;9.20;99.90;;;;;;5019789;28;20474;-64
2023/01/05 07:27:24;;;;;;;27.23;10.97;;;9.30;99.90;;;;;;5020254;28;20812;-65
2023/01/05 07:29:52;;;;;;;27.33;9.50;;;9.30;99.90;;;;;;5018024;28;20464;-64
2023/01/05 07:32:19;;;;;;;30.57;10.80;;;9.20;99.90;;;;;;5019637;28;20460;-63
2023/01/05 07:34:48;;;;;;;31.17;11.70;;;9.20;99.90;;;;;;5019256;28;20471;-64
2023/01/05 07:37:15;;;;;;;22.03;9.43;;;9.30;99.90;;;;;;5018351;28;20464;-63
2023/01/05 07:39:42;;;;;;;28.80;10.27;;;9.30;99.90;;;;;;5019764;28;20515;-64
2023/01/05 07:42:10;;;;;;;26.40;10.60;;;9.30;99.90;;;;;;5019469;28;20925;-65
2023/01/05 07:44:37;;;;;;;27.33;11.23;;;9.30;99.90;;;;;;5019670;28;20467;-64
2023/01/05 07:47:05;;;;;;;25.77;10.57;;;9.30;99.90;;;;;;5018997;28;20464;-64
2023/01/05 07:49:32;;;;;;;35.80;12.53;;;9.30;99.90;;;;;;5017750;28;20890;-64
2023/01/05 07:52:01;;;;;;;32.53;11.73;;;9.40;99.90;;;;;;5019207;28;20504;-64
2023/01/05 07:54:28;;;;;;;35.27;11.47;;;9.30;99.90;;;;;;5019658;28;20482;-64
2023/01/05 07:56:55;;;;;;;32.37;12.37;;;9.30;99.90;;;;;;5019177;28;20882;-64
2023/01/05 07:59:22;;;;;;;28.93;10.63;;;9.30;99.90;;;;;;5019126;28;20748;-64
2023/01/05 08:01:49;;;;;;;37.73;13.00;;;9.40;99.90;;;;;;5018927;28;20492;-64
2023/01/05 08:04:16;;;;;;;27.10;12.70;;;9.40;99.90;;;;;;5019185;28;20775;-64
2023/01/05 08:06:44;;;;;;;22.03;9.83;;;9.40;99.90;;;;;;5018008;28;20897;-64
2023/01/05 08:11:57;;;;;;;27.67;11.60;;;9.40;99.90;;;;;;5030710;28;20544;-63
2023/01/05 08:14:24;;;;;;;26.00;11.33;;;9.40;99.90;;;;;;5038099;28;20438;-64
2023/01/05 08:16:52;;;;;;;29.53;10.20;;;9.40;99.90;;;;;;5038851;28;20434;-65
2023/01/05 08:19:19;;;;;;;32.57;10.43;;;9.40;99.90;;;;;;5038213;28;20467;-66
2023/01/05 08:21:46;;;;;;;32.40;10.10;;;9.40;99.90;;;;;;5038525;28;20526;-65
2023/01/05 08:24:15;;;;;;;26.57;10.00;;;9.40;99.90;;;;;;5038649;28;20449;-64
2023/01/05 08:26:42;;;;;;;27.47;9.73;;;9.40;99.90;;;;;;5038321;28;20481;-65
2023/01/05 08:29:09;;;;;;;28.17;11.07;;;9.40;99.90;;;;;;5038211;28;20467;-64
2023/01/05 08:31:40;;;;;;;27.27;10.03;;;9.40;99.90;;;;;;5038449;28;20493;-64
2023/01/05 08:34:08;;;;;;;37.70;11.10;;;9.40;99.90;;;;;;5038489;28;20474;-64
2023/01/05 08:36:35;;;;;;;31.73;10.27;;;9.40;99.90;;;;;;5037657;28;20463;-63
2023/01/05 08:39:02;;;;;;;38.00;10.57;;;9.40;99.90;;;;;;5038111;28;20463;-64
2023/01/05 08:41:32;;;;;;;32.20;10.90;;;9.50;99.90;;;;;;5037955;28;20494;-64
2023/01/05 08:44:01;;;;;;;31.67;11.90;;;9.50;99.90;;;;;;5038031;28;20485;-63
2023/01/05 08:46:31;;;;;;;28.80;10.80;;;9.50;99.90;;;;;;5036598;28;20497;-63
2023/01/05 08:49:00;;;;;;;31.90;10.57;;;9.60;99.90;;;;;;5035741;28;20467;-64
2023/01/05 08:51:27;;;;;;;33.13;13.10;;;9.60;99.90;;;;;;5036330;28;20463;-65
2023/01/05 08:53:55;;;;;;;28.23;10.97;;;9.60;99.90;;;;;;5036457;28;20880;-65
2023/01/05 08:56:23;;;;;;;24.70;10.47;;;9.60;99.90;;;;;;5032974;28;20486;-65
2023/01/05 08:58:54;;;;;;;29.07;10.60;;;9.50;99.90;;;;;;5024108;28;20566;-64
2023/01/05 09:01:22;;;;;;;30.67;11.47;;;9.50;99.90;;;;;;5018450;28;20884;-64
2023/01/05 09:03:49;;;;;;;28.30;9.17;;;9.50;99.90;;;;;;5017847;28;20468;-64
2023/01/05 09:06:16;;;;;;;27.13;10.40;;;9.50;99.90;;;;;;5017621;28;20498;-63
2023/01/05 09:08:45;;;;;;;28.03;10.40;;;9.50;99.90;;;;;;5017787;28;20470;-63
2023/01/05 09:11:14;;;;;;;24.80;10.50;;;9.50;99.90;;;;;;5018028;28;20906;-64
2023/01/05 09:13:47;;;;;;;20.43;10.90;;;9.50;99.90;;;;;;5018042;28;20834;-64
2023/01/05 09:16:17;;;;;;;21.03;10.33;;;9.50;99.90;;;;;;5018456;28;20479;-63
2023/01/05 09:18:48;;;;;;;23.97;9.67;;;9.60;99.90;;;;;;5028362;28;20482;-64
2023/01/05 09:21:15;;;;;;;22.50;10.27;;;9.70;99.90;;;;;;5023234;28;20503;-64
2023/01/05 09:23:43;;;;;;;28.47;10.40;;;9.70;99.90;;;;;;5016745;28;20488;-64
2023/01/05 09:26:11;;;;;;;31.07;12.10;;;9.60;99.90;;;;;;5018093;28;20464;-64
2023/01/05 09:28:39;;;;;;;35.07;10.90;;;9.70;99.90;;;;;;5017366;28;20467;-64
2023/01/05 09:31:10;;;;;;;23.83;11.00;;;9.70;96.40;;;;;;5016775;28;20531;-64
2023/01/05 09:33:40;;;;;;;36.63;10.70;;;9.70;77.70;;;;;;5017520;28;20602;-64
2023/01/05 09:36:08;;;;;;;28.33;11.63;;;9.60;1.00;;;;;;5017616;28;20446;-64
2023/01/05 09:38:36;;;;;;;33.60;12.77;;;9.60;1.00;;;;;;5017607;28;20889;-63
2023/01/05 09:41:07;;;;;;;42.50;11.50;;;9.70;54.20;;;;;;5017039;28;20464;-63
2023/01/05 09:43:37;;;;;;;33.63;11.30;;;9.60;1.00;;;;;;5017479;28;20506;-64
2023/01/05 09:46:11;;;;;;;37.60;11.17;;;9.70;25.60;;;;;;5017410;28;20470;-63
2023/01/05 09:48:47;;;;;;;31.13;10.50;;;9.70;1.00;;;;;;5017540;28;20463;-64
2023/01/05 09:51:14;;;;;;;22.17;10.00;;;9.70;29.90;;;;;;5017255;28;20897;-63
2023/01/05 09:53:41;;;;;;;32.53;10.27;;;9.80;1.00;;;;;;5024381;28;20467;-63
2023/01/05 09:56:24;;;;;;;27.10;9.70;;;9.80;99.90;;;;;;5037263;28;20549;-63
2023/01/05 09:58:53;;;;;;;31.87;11.37;;;9.80;99.90;;;;;;5037634;28;20464;-63
2023/01/05 10:01:23;;;;;;;27.60;9.80;;;9.80;1.00;;;;;;5043105;28;20471;-63
2023/01/05 10:03:59;;;;;;;25.00;9.53;;;9.80;99.90;;;;;;5043697;28;20541;-63
2023/01/05 10:06:31;;;;;;;38.70;11.13;;;9.80;99.90;;;;;;5041899;28;20490;-63
2023/01/05 10:08:59;;;;;;;30.67;10.90;;;9.90;99.90;;;;;;5041962;28;20900;-63
2023/01/05 10:14:28;;;;;;;34.90;10.30;;;10.00;99.90;;;;;;5042069;28;20881;-62
2023/01/05 10:16:56;;;;;;;27.23;9.83;;;10.00;1.00;;;;;;5042032;28;20485;-62
2023/01/05 10:19:24;;;;;;;30.07;10.37;;;10.00;99.90;;;;;;5042198;28;20465;-62
2023/01/05 10:21:59;;;;;;;27.47;11.50;;;10.10;1.00;;;;;;5043677;28;20793;-63
2023/01/05 10:24:38;;;;;;;28.03;8.80;;;10.10;1.00;;;;;;5044057;28;20462;-63
2023/01/05 10:27:12;;;;;;;37.93;10.10;;;10.10;99.90;;;;;;5043675;28;20896;-63
2023/01/05 10:29:45;;;;;;;34.83;10.83;;;10.20;99.90;;;;;;5042843;28;20467;-62
2023/01/05 10:32:22;;;;;;;20.23;8.10;;;10.10;1.00;;;;;;5040478;28;20527;-62
2023/01/05 10:34:56;;;;;;;22.73;9.20;;;10.20;1.00;;;;;;5043624;28;20470;-62
2023/01/05 10:37:54;;;;;;;25.27;9.33;;;10.10;1.00;;;;;;5042932;28;20471;-63
2023/01/05 10:40:41;;;;;;;28.50;10.13;;;10.20;1.00;;;;;;5040841;28;20479;-63
2023/01/05 10:43:39;;;;;;;28.13;10.47;;;10.10;99.90;;;;;;5043278;28;20501;-63
2023/01/05 10:46:10;;;;;;;25.53;8.40;;;10.20;99.90;;;;;;5043530;28;20812;-63
2023/01/05 10:48:38;;;;;;;22.07;8.23;;;10.30;99.90;;;;;;5043621;28;20469;-63
2023/01/05 10:51:09;;;;;;;29.60;10.00;;;10.20;1.00;;;;;;5042579;28;20876;-63
2023/01/05 10:53:40;;;;;;;31.97;9.87;;;10.20;1.00;;;;;;5042761;28;20465;-63
2023/01/05 10:56:14;;;;;;;26.70;10.80;;;10.20;1.00;;;;;;5043476;28;20470;-64
2023/01/05 10:58:43;;;;;;;27.30;9.23;;;10.30;1.00;;;;;;5043434;28;20899;-64
2023/01/05 11:01:22;;;;;;;25.33;9.10;;;10.30;1.00;;;;;;5043079;28;20509;-64
2023/01/05 11:03:53;;;;;;;25.40;9.60;;;10.30;1.00;;;;;;5043131;28;20490;-64
2023/01/05 11:06:24;;;;;;;30.30;10.03;;;10.30;1.00;;;;;;5043106;28;20498;-63
2023/01/05 11:08:51;;;;;;;23.07;9.10;;;10.30;99.90;;;;;;5043391;28;20854;-63
2023/01/05 11:11:24;;;;;;;29.63;10.33;;;10.30;99.90;;;;;;5041667;28;20463;-64
2023/01/05 11:13:55;;;;;;;22.93;9.60;;;10.10;99.90;;;;;;5039071;28;20513;-64
2023/01/05 11:16:26;;;;;;;19.97;10.10;;;10.20;99.90;;;;;;5023844;28;20483;-64
2023/01/05 11:18:55;;;;;;;26.70;9.40;;;10.30;1.00;;;;;;5019963;28;20859;-64
2023/01/05 11:21:25;;;;;;;32.27;11.57;;;10.30;99.90;;;;;;5019654;28;20441;-64
2023/01/05 11:23:54;;;;;;;27.73;9.90;;;10.40;99.90;;;;;;5019811;28;20496;-64
2023/01/05 11:26:33;;;;;;;22.43;9.03;;;10.50;99.90;;;;;;5022142;28;20456;-64
2023/01/05 11:29:13;;;;;;;24.90;9.03;;;10.30;99.90;;;;;;5019103;28;20468;-64
2023/01/05 11:31:44;;;;;;;21.40;9.00;;;10.40;99.90;;;;;;5018496;28;20900;-64
2023/01/05 11:34:22;;;;;;;26.00;9.20;;;10.40;99.90;;;;;;5018749;28;20728;-64
2023/01/05 11:36:54;;;;;;;26.73;9.57;;;10.40;99.90;;;;;;5018742;28;20464;-64
2023/01/05 11:39:27;;;;;;;27.07;8.97;;;10.40;99.90;;;;;;5018094;28;20464;-64
2023/01/05 11:42:11;;;;;;;15.70;8.30;;;10.50;99.90;;;;;;5018563;28;20464;-64
2023/01/05 11:44:39;;;;;;;28.77;10.13;;;10.60;99.90;;;;;;5018672;28;20582;-65
2023/01/05 11:47:08;;;;;;;23.90;8.90;;;10.60;99.90;;;;;;5022622;28;20481;-65
2023/01/05 11:49:36;;;;;;;19.80;8.60;;;10.60;99.90;;;;;;5037864;28;20557;-65
2023/01/05 11:52:25;;;;;;;26.17;9.50;;;10.60;67.80;;;;;;5037850;28;20444;-65
2023/01/05 11:54:52;;;;;;;36.47;9.60;;;10.60;48.30;;;;;;5037808;28;20502;-65
2023/01/05 11:57:22;;;;;;;31.37;8.40;;;10.60;71.60;;;;;;5037855;28;20434;-65
2023/01/05 11:59:50;;;;;;;26.43;8.13;;;10.60;23.70;;;;;;5037945;28;20524;-65
2023/01/05 12:03:03;;;;;;;23.50;8.40;;;10.60;54.70;;;;;;5038828;28;20502;-65
2023/01/05 12:05:40;;;;;;;44.07;8.80;;;10.50;26.10;;;;;;5037716;28;20483;-65
2023/01/05 12:08:13;;;;;;;26.17;8.23;;;10.50;25.50;;;;;;5039281;28;20457;-65
2023/01/05 12:11:08;;;;;;;27.77;8.57;;;10.50;17.80;;;;;;5038726;28;20546;-65
2023/01/05 12:14:01;;;;;;;30.30;8.20;;;10.50;62.60;;;;;;5038989;28;20738;-65
2023/01/05 12:16:44;;;;;;;23.73;7.50;;;10.50;99.90;;;;;;5038349;28;20459;-65
2023/01/05 12:19:41;;;;;;;23.03;8.03;;;10.50;76.70;;;;;;5038646;28;20462;-65
2023/01/05 12:22:44;;;;;;;23.37;8.97;;;10.50;65.80;;;;;;5038469;28;20469;-65
2023/01/05 12:25:34;;;;;;;20.80;8.60;;;10.40;93.10;;;;;;5038386;28;20467;-65
2023/01/05 12:28:25;;;;;;;22.67;8.70;;;10.50;99.90;;;;;;5037498;28;20497;-65
2023/01/05 12:31:02;;;;;;;24.90;8.10;;;10.50;94.10;;;;;;5037568;28;20452;-64
2023/01/05 12:34:01;;;;;;;28.53;8.97;;;10.50;99.90;;;;;;5038158;28;20558;-64
2023/01/05 12:36:42;;;;;;;22.40;8.90;;;10.40;99.90;;;;;;5038661;28;20469;-64
2023/01/05 12:39:29;;;;;;;26.27;8.73;;;10.40;99.90;;;;;;5037766;28;20557;-64
2023/01/05 12:42:12;;;;;;;31.57;9.50;;;10.30;99.90;;;;;;5038217;28;20889;-64
2023/01/05 12:44:56;;;;;;;19.80;9.23;;;10.30;99.90;;;;;;5037032;28;20459;-64
2023/01/05 12:47:36;;;;;;;33.90;9.50;;;10.20;98.70;;;;;;5032023;28;20510;-64
2023/01/05 12:50:20;;;;;;;29.37;8.83;;;10.20;99.90;;;;;;5017344;28;20459;-64
2023/01/05 12:52:51;;;;;;;21.93;9.67;;;10.20;99.90;;;;;;5019180;28;20468;-64
2023/01/05 12:55:23;;;;;;;22.63;9.00;;;10.20;99.90;;;;;;5033325;28;20463;-64
2023/01/05 12:57:57;;;;;;;19.40;9.37;;;10.30;99.90;;;;;;5036047;28;20458;-64
2023/01/05 13:00:27;;;;;;;27.70;9.30;;;10.30;99.90;;;;;;5036204;28;20459;-64
2023/01/05 13:02:58;;;;;;;21.33;9.13;;;10.30;99.90;;;;;;5034989;28;20491;-64
2023/01/05 13:05:30;;;;;;;18.67;7.90;;;10.30;99.90;;;;;;5034669;28;20482;-64
2023/01/05 13:08:03;;;;;;;16.37;8.60;;;10.40;99.90;;;;;;5036460;28;20490;-64
2023/01/05 13:10:38;;;;;;;26.57;10.03;;;10.70;99.90;;;;;;5028993;28;20958;-64
2023/01/05 13:13:13;;;;;;;23.53;8.07;;;10.80;1.00;;;;;;5016767;28;20775;-64
2023/01/05 13:15:56;;;;;;;21.13;7.70;;;10.80;1.00;;;;;;5019487;28;20792;-64
2023/01/05 13:18:26;;;;;;;23.53;8.40;;;10.90;1.00;;;;;;5016628;28;20468;-64
2023/01/05 13:20:56;;;;;;;22.73;8.70;;;11.00;1.00;;;;;;5016089;28;20460;-64
2023/01/05 13:23:27;;;;;;;17.87;7.20;;;11.00;1.00;;;;;;5017203;28;20770;-65
2023/01/05 13:25:59;;;;;;;25.70;8.03;;;11.00;1.00;;;;;;5017221;28;20470;-64
2023/01/05 13:28:28;;;;;;;31.10;9.33;;;11.00;1.00;;;;;;5016867;28;20971;-64
2023/01/05 13:31:16;;;;;;;17.53;7.97;;;10.90;1.00;;;;;;5016519;28;20889;-64
2023/01/05 13:34:04;;;;;;;20.43;7.93;;;10.80;1.00;;;;;;5017346;28;20467;-64
2023/01/05 13:36:46;;;;;;;23.20;8.50;;;10.90;1.00;;;;;;5017574;28;20468;-64